Terminal Aerodrome Forecast
Issued by NWS Bismarck, ND

Home | Current Version | Previous Version | Graphics & Text | Print | Product List | Glossary On
Versions: 1 2 3 4 5 6 7 8 9 10 11 12 13 14 15 16 17 18 19 20 21 22 23 24 25
000
FTUS43 KBIS 180200 AAA
TAFBIS
TAF AMD
KBIS 180258Z 1803/1824 06004KT P6SM SCT300
     FM180700 09006KT P6SM SCT250
     FM181300 13006KT P6SM SCT150 BKN190
     FM181700 17010KT P6SM BKN080 OVC110=

USA.gov is the U.S. government's official web portal to all federal, state and local government web resources and services.